createdAt,value
2023-04-06T00:00:10.593Z,68.9524
2023-04-06T00:01:11.809Z,69.2071
2023-04-06T00:02:12.847Z,69.2855
2023-04-06T00:03:13.516Z,69.3542
2023-04-06T00:04:13.572Z,69.6249
2023-04-06T00:05:14.869Z,69.8699
2023-04-06T00:06:17.212Z,70.0523
2023-04-06T00:07:17.412Z,70.4500
2023-04-06T00:08:18.435Z,71.3733
2023-04-06T00:09:18.765Z,71.6916
2023-04-06T00:10:19.779Z,71.5734
2023-04-06T00:11:21.029Z,71.2396
2023-04-06T00:12:22.077Z,71.3391
2023-04-06T00:13:23.356Z,71.4592
2023-04-06T00:14:24.377Z,71.1862
2023-04-06T00:15:25.743Z,71.7570
2023-04-06T00:16:29.027Z,72.1775
2023-04-06T00:17:27.537Z,71.7870
2023-04-06T00:18:27.573Z,71.8151
2023-04-06T00:19:28.992Z,72.4187
2023-04-06T00:20:30.376Z,72.2160
2023-04-06T00:21:31.330Z,72.9938
2023-04-06T00:22:32.704Z,72.2625
2023-04-06T00:23:33.603Z,72.1819
2023-04-06T00:24:35.208Z,72.2114
2023-04-06T00:25:36.344Z,71.9808
2023-04-06T00:26:37.655Z,71.9455
2023-04-06T00:27:38.779Z,72.0874
2023-04-06T00:28:39.267Z,71.8900
2023-04-06T00:29:40.667Z,71.9011
2023-04-06T00:30:41.623Z,72.4106
2023-04-06T00:31:42.958Z,72.9905
2023-04-06T00:32:44.325Z,72.9168
2023-04-06T00:33:44.227Z,73.4789
2023-04-06T00:34:44.414Z,73.7179
2023-04-06T00:35:45.856Z,73.7303
2023-04-06T00:36:47.050Z,73.4920
2023-04-06T00:37:48.487Z,73.6998
2023-04-06T00:38:49.626Z,73.5663
2023-04-06T00:39:51.149Z,73.5098
2023-04-06T00:40:52.311Z,73.5715
2023-04-06T00:41:53.684Z,74.3614
2023-04-06T00:42:55.105Z,73.9698
2023-04-06T00:43:56.327Z,74.1956
2023-04-06T00:44:57.714Z,74.4134
2023-04-06T00:45:59.048Z,74.4196
2023-04-06T00:47:00.315Z,74.7371
2023-04-06T00:48:01.889Z,74.6783
2023-04-06T00:49:01.792Z,75.0983
2023-04-06T00:50:02.302Z,74.7045
2023-04-06T00:51:03.683Z,74.8611
2023-04-06T00:52:04.896Z,75.6127
2023-04-06T00:53:06.107Z,75.1800
2023-04-06T00:54:07.195Z,75.1263
2023-04-06T00:55:08.413Z,75.9536
2023-04-06T00:56:09.536Z,74.4633
2023-04-06T00:57:10.676Z,73.1330
2023-04-06T00:58:12.281Z,72.8011
2023-04-06T00:59:13.347Z,72.5498
2023-04-06T01:00:13.757Z,72.4131
2023-04-06T01:01:15.114Z,72.1833
2023-04-06T01:02:15.331Z,72.2971
2023-04-06T01:03:15.323Z,72.3379
2023-04-06T01:04:16.572Z,72.6128
2023-04-06T01:05:16.755Z,72.7238
2023-04-06T01:06:16.828Z,72.7977
2023-04-06T01:07:18.405Z,72.9864
2023-04-06T01:08:19.522Z,73.0183
2023-04-06T01:09:20.059Z,72.9589
2023-04-06T01:10:21.257Z,73.2552
2023-04-06T01:11:22.411Z,73.5941
2023-04-06T01:12:23.458Z,73.2999
2023-04-06T01:13:24.728Z,73.7112
2023-04-06T01:14:26.023Z,73.9117
2023-04-06T01:15:27.315Z,74.0330
2023-04-06T01:16:28.641Z,74.0394
2023-04-06T01:17:28.681Z,74.5624
2023-04-06T01:18:29.102Z,75.4631
2023-04-06T01:19:30.594Z,74.7758
2023-04-06T01:20:31.717Z,74.9055
2023-04-06T01:21:32.954Z,75.9720
2023-04-06T01:22:33.807Z,75.8743
2023-04-06T01:23:35.029Z,75.6344
2023-04-06T01:24:36.107Z,76.6272
2023-04-06T01:25:37.380Z,77.2551
2023-04-06T01:26:38.424Z,76.3805
2023-04-06T01:27:39.785Z,76.2550
2023-04-06T01:28:41.048Z,76.3464
2023-04-06T01:29:41.418Z,76.6288
2023-04-06T01:30:42.561Z,76.6931
2023-04-06T01:31:42.949Z,76.6201
2023-04-06T01:32:44.138Z,76.6159
2023-04-06T01:33:44.479Z,76.8500
2023-04-06T01:34:45.537Z,76.9537
2023-04-06T01:35:46.942Z,76.9106
2023-04-06T01:36:48.158Z,76.1064
2023-04-06T01:37:49.491Z,75.5200
2023-04-06T01:38:50.558Z,75.4735
2023-04-06T01:39:51.777Z,75.9329
2023-04-06T01:40:52.902Z,76.1643
2023-04-06T01:41:52.942Z,76.2240
2023-04-06T01:42:54.222Z,76.2352
2023-04-06T01:44:55.071Z,75.5443
2023-04-06T01:45:56.357Z,75.0712
2023-04-06T01:46:56.735Z,75.1759
2023-04-06T01:47:56.900Z,75.2736
2023-04-06T01:48:58.283Z,75.4423
2023-04-06T01:49:58.334Z,75.6088
2023-04-06T01:50:59.571Z,75.8292
2023-04-06T01:52:00.808Z,75.9728
2023-04-06T01:53:00.894Z,76.1462
2023-04-06T01:54:02.198Z,76.0494
2023-04-06T01:55:03.314Z,76.1145
2023-04-06T01:56:04.695Z,76.2613
2023-04-06T01:57:05.832Z,76.3833
2023-04-06T01:58:07.326Z,76.5388
2023-04-06T01:59:08.789Z,76.6634
2023-04-06T02:00:09.024Z,76.8365
2023-04-06T02:01:09.109Z,77.0126
2023-04-06T02:02:10.534Z,77.1231
2023-04-06T02:03:11.445Z,77.4855
2023-04-06T02:04:11.952Z,77.7591
2023-04-06T02:05:13.010Z,78.1338
2023-04-06T02:06:14.412Z,78.1374
2023-04-06T02:07:15.635Z,78.1389
2023-04-06T02:09:15.961Z,78.4503
2023-04-06T02:10:15.968Z,78.6672
2023-04-06T02:11:17.243Z,78.4787
2023-04-06T02:12:18.514Z,78.5974
2023-04-06T02:13:19.803Z,78.1114
2023-04-06T02:14:19.977Z,77.9026
2023-04-06T02:15:21.047Z,77.6134
2023-04-06T02:16:22.462Z,77.2345
2023-04-06T02:17:23.816Z,77.1707
2023-04-06T02:18:24.654Z,77.3385
2023-04-06T02:19:25.729Z,76.7849
2023-04-06T02:20:25.783Z,76.8047
2023-04-06T02:21:26.891Z,76.9191
2023-04-06T02:22:28.413Z,77.1212
2023-04-06T02:23:29.544Z,77.4396
2023-04-06T02:24:29.733Z,77.5929
2023-04-06T02:25:29.607Z,77.7621
2023-04-06T02:26:30.868Z,77.8783
2023-04-06T02:27:30.975Z,78.1689
2023-04-06T02:28:31.213Z,78.0802
2023-04-06T02:29:32.489Z,77.7598
2023-04-06T02:30:32.431Z,77.2500
2023-04-06T02:31:33.789Z,76.8597
2023-04-06T02:32:34.130Z,77.0262
2023-04-06T02:33:35.478Z,77.1187
2023-04-06T02:34:36.867Z,77.4545
2023-04-06T02:35:38.273Z,77.7152
2023-04-06T02:36:38.307Z,77.8133
2023-04-06T02:37:38.400Z,77.8904
2023-04-06T02:38:38.514Z,77.9352
2023-04-06T02:39:39.645Z,78.0003
2023-04-06T02:40:41.225Z,78.1889
2023-04-06T02:41:42.345Z,78.0963
2023-04-06T02:42:43.671Z,77.6960
2023-04-06T02:43:45.008Z,78.0392
2023-04-06T02:44:46.273Z,78.2646
2023-04-06T02:45:47.463Z,78.4284
2023-04-06T02:46:47.538Z,78.5432
2023-04-06T02:47:48.636Z,78.5542
2023-04-06T02:48:50.170Z,78.7758
2023-04-06T02:49:50.040Z,79.0063
2023-04-06T02:50:51.388Z,79.2931
2023-04-06T02:51:52.495Z,79.3298
2023-04-06T02:52:52.555Z,79.3462
2023-04-06T02:53:53.803Z,79.3709
2023-04-06T02:55:54.749Z,79.4019
2023-04-06T02:56:54.817Z,79.6951
2023-04-06T02:57:56.109Z,79.8051
2023-04-06T02:58:56.343Z,80.0706
2023-04-06T02:59:56.389Z,80.1777
2023-04-06T03:00:56.494Z,80.0314
2023-04-06T03:01:57.354Z,80.0694
2023-04-06T03:03:07.417Z,80.1473
2023-04-06T03:04:17.785Z,80.3755
2023-04-06T03:05:27.474Z,80.7582
2023-04-06T03:06:49.642Z,80.8194
2023-04-06T03:07:29.038Z,80.8935
2023-04-06T03:09:14.805Z,80.9074
2023-04-06T03:09:31.054Z,81.0538
2023-04-06T03:10:32.320Z,81.0364
2023-04-06T03:11:33.684Z,81.2215
2023-04-06T03:12:34.807Z,81.3109
2023-04-06T03:13:36.057Z,81.4840
2023-04-06T03:14:37.563Z,81.7324
2023-04-06T03:15:37.607Z,81.6750
2023-04-06T03:16:38.014Z,81.7395
2023-04-06T03:17:39.151Z,81.8721
2023-04-06T03:18:39.515Z,81.7335
2023-04-06T03:19:40.521Z,81.7990
2023-04-06T03:20:41.001Z,82.0176
2023-04-06T03:21:41.050Z,82.0853
2023-04-06T03:22:42.286Z,82.0873
2023-04-06T03:23:42.383Z,82.2487
2023-04-06T03:24:43.497Z,82.3455
2023-04-06T03:25:44.882Z,82.3456
2023-04-06T03:26:46.029Z,82.5787
2023-04-06T03:28:47.004Z,82.6604
2023-04-06T03:29:48.342Z,82.6398
2023-04-06T03:30:49.607Z,82.6453
2023-04-06T03:31:49.758Z,82.9158
2023-04-06T03:32:51.162Z,82.7364
2023-04-06T03:33:51.352Z,82.8094
2023-04-06T03:34:52.525Z,82.9511
2023-04-06T03:35:52.915Z,82.6219
2023-04-06T03:37:03.228Z,82.6879
2023-04-06T03:37:54.626Z,83.4017
2023-04-06T03:38:54.654Z,83.7400
2023-04-06T03:39:55.902Z,83.0730
2023-04-06T03:40:57.371Z,82.9631
2023-04-06T03:41:58.565Z,82.6581
2023-04-06T03:42:58.631Z,82.8031
2023-04-06T03:43:59.814Z,82.7057
2023-04-06T03:45:01.157Z,82.7335
2023-04-06T03:46:02.354Z,82.9837
2023-04-06T03:47:02.651Z,82.9687
2023-04-06T03:48:02.794Z,83.1182
2023-04-06T03:49:02.909Z,82.8961
2023-04-06T03:50:03.237Z,82.6619
2023-04-06T03:51:03.341Z,82.9851
2023-04-06T03:52:04.432Z,82.5167
2023-04-06T03:53:04.502Z,82.5028
2023-04-06T03:54:05.666Z,82.5284
2023-04-06T03:55:06.955Z,82.6507
2023-04-06T03:56:08.263Z,82.4906
2023-04-06T03:57:08.238Z,82.6569
2023-04-06T03:58:09.413Z,82.5646
2023-04-06T03:59:10.670Z,82.5104
2023-04-06T04:00:10.868Z,82.3735
2023-04-06T04:01:11.019Z,82.3818
2023-04-06T04:02:11.191Z,82.4024
2023-04-06T04:03:12.096Z,82.4709
2023-04-06T04:04:13.255Z,82.5223
2023-04-06T04:05:14.583Z,82.4890
2023-04-06T04:06:14.638Z,82.2245
2023-04-06T04:07:15.758Z,82.3854
2023-04-06T04:08:17.079Z,82.4941
2023-04-06T04:09:17.579Z,82.6472
2023-04-06T04:10:18.809Z,82.3331
2023-04-06T04:11:20.058Z,81.8539
2023-04-06T04:12:21.344Z,82.3639
2023-04-06T04:13:22.517Z,81.9720
2023-04-06T04:14:23.814Z,82.2517
2023-04-06T04:15:25.076Z,82.3762
2023-04-06T04:16:25.258Z,82.5434
2023-04-06T04:17:25.466Z,82.5712
2023-04-06T04:18:25.553Z,82.6545
2023-04-06T04:19:25.998Z,82.7624
2023-04-06T04:20:27.314Z,82.6408
2023-04-06T04:21:28.479Z,82.4462
2023-04-06T04:22:29.792Z,82.6642
2023-04-06T04:23:30.914Z,82.7196
2023-04-06T04:24:31.578Z,82.4779
2023-04-06T04:25:32.685Z,82.6862
2023-04-06T04:26:34.035Z,82.4218
2023-04-06T04:27:35.160Z,82.7170
2023-04-06T04:28:36.525Z,82.9169
2023-04-06T04:29:37.029Z,82.7957
2023-04-06T04:30:38.339Z,82.7791
2023-04-06T04:31:39.530Z,82.7982
2023-04-06T04:32:39.546Z,83.2039
2023-04-06T04:33:40.865Z,83.5865
2023-04-06T04:34:41.996Z,83.8069
2023-04-06T04:35:42.204Z,83.2826
2023-04-06T04:36:43.491Z,83.4160
2023-04-06T04:38:44.820Z,83.0887
2023-04-06T04:39:45.356Z,82.7186
2023-04-06T04:40:46.659Z,82.4674
2023-04-06T04:42:47.677Z,82.8750
2023-04-06T04:43:49.136Z,83.2779
2023-04-06T04:44:50.216Z,84.2929
2023-04-06T04:46:51.374Z,83.6303
2023-04-06T04:47:51.563Z,83.6336
2023-04-06T04:48:52.795Z,83.9244
2023-04-06T04:49:54.046Z,83.7143
2023-04-06T04:50:55.194Z,83.8921
2023-04-06T04:51:56.565Z,83.9161
2023-04-06T04:52:57.805Z,83.9240
2023-04-06T04:53:58.673Z,83.9512
2023-04-06T04:54:59.813Z,83.9880
2023-04-06T04:56:01.133Z,84.0423
2023-04-06T04:57:02.302Z,84.1857
2023-04-06T04:58:02.311Z,84.2076
2023-04-06T04:59:03.612Z,84.1999
2023-04-06T05:00:04.150Z,84.2028
2023-04-06T05:01:05.445Z,84.1194
2023-04-06T05:02:06.294Z,83.9348
2023-04-06T05:03:06.881Z,84.3280
2023-04-06T05:04:07.961Z,84.5848
2023-04-06T05:05:09.237Z,84.5315
2023-04-06T05:06:12.864Z,84.5410
2023-04-06T05:07:11.898Z,84.4363
2023-04-06T05:08:12.063Z,84.3578
2023-04-06T05:09:13.305Z,84.4091
2023-04-06T05:10:13.355Z,84.4812
2023-04-06T05:11:14.678Z,84.5557
2023-04-06T05:12:14.693Z,84.4703
2023-04-06T05:13:15.956Z,84.2837
2023-04-06T05:14:16.780Z,84.3184
2023-04-06T05:15:17.020Z,84.2238
2023-04-06T05:16:17.386Z,82.6751
2023-04-06T05:17:17.441Z,81.8026
2023-04-06T05:18:17.673Z,81.1650
2023-04-06T05:19:18.459Z,82.3156
2023-04-06T05:20:18.478Z,81.9829
2023-04-06T05:21:19.706Z,81.8118
2023-04-06T05:22:21.059Z,81.6354
2023-04-06T05:23:21.215Z,81.4696
2023-04-06T05:24:22.516Z,82.1064
2023-04-06T05:25:22.876Z,82.8593
2023-04-06T05:28:25.390Z,82.2835
2023-04-06T05:29:25.860Z,82.2436
2023-04-06T05:30:26.542Z,82.4717
2023-04-06T05:31:27.893Z,82.6066
2023-04-06T05:32:28.152Z,82.5671
2023-04-06T05:33:28.354Z,82.4773
2023-04-06T05:34:28.795Z,82.5282
2023-04-06T05:35:28.769Z,82.3549
2023-04-06T05:36:28.772Z,82.5458
2023-04-06T05:37:30.051Z,82.9616
2023-04-06T05:38:30.412Z,83.0271
2023-04-06T05:39:30.333Z,82.1831
2023-04-06T05:40:30.542Z,80.9388
2023-04-06T05:41:31.912Z,79.6159
2023-04-06T05:42:32.285Z,80.3189
2023-04-06T05:43:33.681Z,79.1451
2023-04-06T05:44:33.748Z,79.2131
2023-04-06T05:45:35.203Z,78.4282
2023-04-06T05:46:36.591Z,79.0483
2023-04-06T05:47:36.720Z,78.9653
2023-04-06T05:48:37.088Z,78.1644
2023-04-06T05:49:37.379Z,77.1721
2023-04-06T05:50:39.061Z,77.1154
2023-04-06T05:51:39.106Z,77.0257
2023-04-06T05:52:40.446Z,76.0669
2023-04-06T05:53:40.996Z,75.0175
2023-04-06T05:54:42.264Z,73.9328
2023-04-06T05:55:43.639Z,73.7542
2023-04-06T05:56:44.876Z,73.0891
2023-04-06T05:57:45.078Z,73.1286
2023-04-06T05:58:45.142Z,73.0223
2023-04-06T05:59:45.392Z,73.4930
2023-04-06T06:00:46.611Z,72.8287
2023-04-06T06:01:46.841Z,72.6379
2023-04-06T06:02:47.512Z,71.8985
2023-04-06T06:03:47.760Z,72.4803
2023-04-06T06:04:49.038Z,73.3784
2023-04-06T06:05:49.669Z,73.1025
2023-04-06T06:06:50.198Z,73.2288
2023-04-06T06:07:51.531Z,73.3773
2023-04-06T06:08:51.601Z,73.4142
2023-04-06T06:09:51.787Z,73.4831
2023-04-06T06:10:51.937Z,73.5663
2023-04-06T06:11:53.164Z,73.7372
2023-04-06T06:12:53.334Z,73.7560
2023-04-06T06:13:53.339Z,73.9945
2023-04-06T06:14:54.830Z,74.1964
2023-04-06T06:15:54.886Z,74.4527
2023-04-06T06:16:55.190Z,74.2105
2023-04-06T06:17:55.318Z,72.0026
2023-04-06T06:18:55.636Z,70.5526
2023-04-06T06:19:56.054Z,69.4840
2023-04-06T06:20:56.293Z,69.1237
2023-04-06T06:21:57.729Z,69.0133
2023-04-06T06:22:58.925Z,68.6535
2023-04-06T06:23:59.332Z,68.6695
2023-04-06T06:25:00.462Z,68.6483
2023-04-06T06:26:00.808Z,68.6695
2023-04-06T06:27:01.119Z,69.2036
2023-04-06T06:28:01.396Z,69.3691
2023-04-06T06:29:02.758Z,69.9226
2023-04-06T06:30:02.811Z,70.0024
2023-04-06T06:31:03.879Z,70.0987
2023-04-06T06:32:04.241Z,70.7683
2023-04-06T06:33:04.439Z,71.0190
2023-04-06T06:34:04.508Z,71.1188
2023-04-06T06:35:05.865Z,70.9929
2023-04-06T06:36:06.121Z,70.7266
2023-04-06T06:37:06.328Z,70.3149
2023-04-06T06:38:06.444Z,70.4109
2023-04-06T06:39:07.106Z,68.6761
2023-04-06T06:40:07.110Z,67.8808
2023-04-06T06:41:07.229Z,67.0781
2023-04-06T06:42:07.319Z,67.6795
2023-04-06T06:43:07.723Z,67.4276
2023-04-06T06:44:09.352Z,67.5287
2023-04-06T06:45:09.569Z,68.1025
2023-04-06T06:46:09.880Z,67.6039
2023-04-06T06:47:09.928Z,67.7584
2023-04-06T06:48:10.276Z,68.1367
2023-04-06T06:49:10.790Z,68.4516
2023-04-06T06:50:12.135Z,68.6381
2023-04-06T06:51:12.180Z,67.9156
2023-04-06T06:52:13.449Z,67.6599
2023-04-06T06:53:13.760Z,67.8426
2023-04-06T06:54:15.022Z,68.0897
2023-04-06T06:55:15.200Z,68.2164
2023-04-06T06:56:16.506Z,68.1643
2023-04-06T06:57:16.803Z,68.5112
2023-04-06T06:58:18.054Z,67.9995
2023-04-06T06:59:18.434Z,68.2165
2023-04-06T07:00:19.339Z,68.4226
2023-04-06T07:01:19.590Z,67.9247
2023-04-06T07:02:19.928Z,67.8116
2023-04-06T07:03:20.379Z,67.7358
2023-04-06T07:04:21.455Z,67.3708
2023-04-06T07:05:29.185Z,67.1191
2023-04-06T07:06:29.373Z,66.1394
2023-04-06T07:07:30.742Z,64.7933
2023-04-06T07:08:30.975Z,64.2879
2023-04-06T07:09:32.164Z,64.7310
2023-04-06T07:10:33.677Z,64.1615
2023-04-06T07:11:34.068Z,63.4105
2023-04-06T07:12:36.530Z,63.7078
2023-04-06T07:13:37.782Z,63.7913
2023-04-06T07:14:37.862Z,63.2860
2023-04-06T07:15:39.093Z,63.0902
2023-04-06T07:16:40.230Z,62.4688
2023-04-06T07:17:40.435Z,61.9935
2023-04-06T07:18:40.620Z,61.6831
2023-04-06T07:19:41.974Z,61.8275
2023-04-06T07:20:43.428Z,61.5088
2023-04-06T07:21:44.753Z,62.0863
2023-04-06T07:22:46.324Z,60.5055
2023-04-06T07:23:46.409Z,60.1325
2023-04-06T07:24:47.009Z,60.5699
2023-04-06T07:25:47.013Z,60.8558
2023-04-06T07:26:47.284Z,60.9537
2023-04-06T07:27:47.255Z,60.9004
2023-04-06T07:28:47.207Z,60.5411
2023-04-06T07:29:47.592Z,60.0359
2023-04-06T07:30:47.601Z,60.1914
2023-04-06T07:31:48.312Z,60.5153
2023-04-06T07:32:48.994Z,59.7993
2023-04-06T07:33:49.026Z,59.8320
2023-04-06T07:34:49.112Z,60.0811
2023-04-06T07:35:49.740Z,60.2024
2023-04-06T07:36:50.607Z,59.9948
2023-04-06T07:37:51.967Z,59.2372
2023-04-06T07:38:52.535Z,58.5004
2023-04-06T07:39:53.722Z,58.6681
2023-04-06T07:40:53.969Z,58.5748
2023-04-06T07:41:54.218Z,58.6268
2023-04-06T07:42:56.176Z,58.6968
2023-04-06T07:43:55.363Z,58.1757
2023-04-06T07:44:55.889Z,58.4575
2023-04-06T07:45:55.941Z,59.4680
2023-04-06T07:46:56.390Z,59.1306
2023-04-06T07:47:56.791Z,58.9116
2023-04-06T07:48:57.113Z,59.4423
2023-04-06T07:49:57.147Z,59.7128
2023-04-06T07:50:57.170Z,58.9987
2023-04-06T07:51:57.444Z,58.4455
2023-04-06T07:52:57.420Z,58.2686
2023-04-06T07:53:58.862Z,58.7338
2023-04-06T07:54:59.413Z,57.7648
2023-04-06T07:56:00.731Z,57.6972
2023-04-06T07:57:00.785Z,58.9128
2023-04-06T07:58:00.877Z,57.7390
2023-04-06T07:59:02.075Z,57.5923
2023-04-06T08:00:02.287Z,58.0764
2023-04-06T08:01:02.501Z,57.1399
2023-04-06T08:02:02.594Z,57.2430
2023-04-06T08:03:03.676Z,57.6428
2023-04-06T08:04:03.913Z,57.3494
2023-04-06T08:05:04.041Z,57.2316
2023-04-06T08:06:04.292Z,59.0631
2023-04-06T08:07:04.626Z,58.5545
2023-04-06T08:08:04.628Z,57.7001
2023-04-06T08:09:04.987Z,56.6342
2023-04-06T08:10:06.401Z,56.9031
2023-04-06T08:11:06.576Z,57.1379
2023-04-06T08:12:06.876Z,56.8914
2023-04-06T08:13:06.956Z,56.4193
2023-04-06T08:14:07.387Z,55.9780
2023-04-06T08:15:08.103Z,55.5236
2023-04-06T08:16:08.733Z,54.6942
2023-04-06T08:17:09.500Z,55.1492
2023-04-06T08:18:09.727Z,55.7507
2023-04-06T08:19:11.364Z,55.1830
2023-04-06T08:20:11.700Z,54.5398
2023-04-06T08:21:11.691Z,56.4216
2023-04-06T08:22:11.952Z,55.1625
2023-04-06T08:23:12.588Z,53.5813
2023-04-06T08:24:13.497Z,53.3627
2023-04-06T08:25:13.501Z,53.6929
2023-04-06T08:26:13.697Z,53.8000
2023-04-06T08:27:13.748Z,54.5458
2023-04-06T08:28:15.177Z,53.8676
2023-04-06T08:29:15.636Z,53.8578
2023-04-06T08:30:17.026Z,54.2637
2023-04-06T08:31:17.594Z,54.3318
2023-04-06T08:32:17.776Z,54.2119
2023-04-06T08:33:18.171Z,53.9719
2023-04-06T08:34:19.383Z,53.8866
2023-04-06T08:35:19.574Z,54.3572
2023-04-06T08:36:19.947Z,52.9682
2023-04-06T08:37:21.270Z,53.0628
2023-04-06T08:38:21.468Z,53.9869
2023-04-06T08:39:21.447Z,54.2278
2023-04-06T08:40:21.677Z,52.6058
2023-04-06T08:41:22.319Z,51.7013
2023-04-06T08:42:23.680Z,52.3063
2023-04-06T08:43:23.750Z,52.5195
2023-04-06T08:44:25.085Z,52.5437
2023-04-06T08:45:25.475Z,52.1533
2023-04-06T08:46:25.894Z,51.3683
2023-04-06T08:47:26.255Z,51.6502
2023-04-06T08:48:26.909Z,51.4617
2023-04-06T08:49:27.150Z,52.0418
2023-04-06T08:50:28.565Z,52.1122
2023-04-06T08:51:30.165Z,52.3146
2023-04-06T08:52:31.533Z,52.7479
2023-04-06T08:53:32.005Z,52.7298
2023-04-06T08:54:32.154Z,52.9222
2023-04-06T08:55:33.693Z,52.1837
2023-04-06T08:56:35.038Z,52.6672
2023-04-06T08:57:36.723Z,51.4232
2023-04-06T08:58:38.546Z,51.4331
2023-04-06T08:59:37.661Z,51.1670
2023-04-06T09:00:38.227Z,51.5509
2023-04-06T09:01:39.264Z,50.7591
2023-04-06T09:02:40.069Z,50.8489
2023-04-06T09:03:41.143Z,51.3191
2023-04-06T09:04:42.318Z,51.6253
2023-04-06T09:05:42.521Z,51.3559
2023-04-06T09:06:42.735Z,51.7653
2023-04-06T09:07:42.825Z,51.0262
2023-04-06T09:08:42.982Z,50.6791
2023-04-06T09:09:43.080Z,50.1443
2023-04-06T09:10:43.415Z,49.7546
2023-04-06T09:11:44.763Z,49.9175
2023-04-06T09:12:45.124Z,49.8506
2023-04-06T09:13:45.334Z,49.7919
2023-04-06T09:14:45.466Z,48.0545
2023-04-06T09:15:45.718Z,45.3150
2023-04-06T09:16:46.509Z,45.2288
2023-04-06T09:17:46.924Z,45.2680
2023-04-06T09:18:47.255Z,44.7081
2023-04-06T09:19:47.351Z,44.1900
2023-04-06T09:20:47.701Z,44.4214
2023-04-06T09:21:47.869Z,43.5063
2023-04-06T09:22:48.284Z,44.2021
2023-04-06T09:23:48.506Z,44.5593
2023-04-06T09:24:49.292Z,44.9022
2023-04-06T09:25:49.662Z,44.7121
2023-04-06T09:26:50.057Z,44.3145
2023-04-06T09:27:50.158Z,43.5142
2023-04-06T09:28:50.402Z,44.0345
2023-04-06T09:29:50.506Z,43.5565
2023-04-06T09:30:50.974Z,44.0201
2023-04-06T09:31:51.334Z,41.8266
2023-04-06T09:32:52.469Z,40.8311
2023-04-06T09:33:52.954Z,40.9143
2023-04-06T09:34:53.870Z,41.5593
2023-04-06T09:35:54.123Z,41.8022
2023-04-06T09:36:54.667Z,42.3888
2023-04-06T09:37:54.688Z,42.3397
2023-04-06T09:38:54.953Z,41.4188
2023-04-06T09:39:55.008Z,41.8514
2023-04-06T09:41:01.818Z,41.1934
2023-04-06T09:42:01.936Z,40.7540
2023-04-06T09:43:02.193Z,40.7416
2023-04-06T09:44:02.334Z,42.0913
2023-04-06T09:45:02.638Z,42.0950
2023-04-06T09:46:02.750Z,41.6053
2023-04-06T09:47:03.891Z,40.2180
2023-04-06T09:48:04.019Z,38.9178
2023-04-06T09:49:04.544Z,41.2617
2023-04-06T09:50:05.213Z,41.4216
2023-04-06T09:51:05.497Z,41.3612
2023-04-06T09:52:07.008Z,39.9471
2023-04-06T09:53:07.237Z,40.2761
2023-04-06T09:54:07.742Z,39.6201
2023-04-06T09:55:08.310Z,40.2891
2023-04-06T09:56:08.581Z,40.5599
2023-04-06T09:57:08.997Z,39.7460
2023-04-06T09:58:09.367Z,39.9146
2023-04-06T09:59:10.461Z,40.7206
2023-04-06T10:00:11.501Z,41.2596
2023-04-06T10:01:12.013Z,41.0624
2023-04-06T10:02:12.509Z,40.5602
2023-04-06T10:03:13.401Z,41.5867
2023-04-06T10:04:14.881Z,41.0146
2023-04-06T10:05:15.661Z,40.6963
2023-04-06T10:06:15.817Z,40.4347
2023-04-06T10:07:16.151Z,40.8203
2023-04-06T10:08:17.099Z,40.2827
2023-04-06T10:09:17.304Z,40.9155
2023-04-06T10:10:17.597Z,41.0458
2023-04-06T10:11:18.080Z,39.8745
2023-04-06T10:12:18.236Z,38.3187
2023-04-06T10:13:18.361Z,37.3665
2023-04-06T10:14:18.632Z,37.7853
2023-04-06T10:15:20.304Z,39.4373
2023-04-06T10:16:19.486Z,39.2658
2023-04-06T10:17:19.850Z,39.7915
2023-04-06T10:18:20.493Z,40.1884
2023-04-06T10:19:20.700Z,40.0969
2023-04-06T10:20:20.873Z,40.1832
2023-04-06T10:21:21.926Z,40.4968
2023-04-06T10:22:22.199Z,40.3188
2023-04-06T10:23:22.567Z,40.9749
2023-04-06T10:24:22.724Z,40.8742
2023-04-06T10:25:22.808Z,40.8509
2023-04-06T10:26:22.942Z,39.3175
2023-04-06T10:27:24.762Z,38.9800
2023-04-06T10:28:23.950Z,38.7954
2023-04-06T10:29:24.143Z,37.8988
2023-04-06T10:30:24.217Z,38.0722
2023-04-06T10:31:24.740Z,37.8032
2023-04-06T10:32:25.132Z,38.1308
2023-04-06T10:33:25.475Z,38.5856
2023-04-06T10:34:25.653Z,38.3726
2023-04-06T10:35:25.676Z,38.9157
2023-04-06T10:36:26.164Z,37.8705
2023-04-06T10:37:26.452Z,37.3146
2023-04-06T10:38:26.506Z,37.0598
2023-04-06T10:39:26.845Z,36.8550
2023-04-06T10:40:27.041Z,36.1176
2023-04-06T10:41:27.289Z,35.7108
2023-04-06T10:42:27.376Z,36.0671
2023-04-06T10:46:14.319Z,37.7050
2023-04-06T10:47:14.583Z,37.3865
2023-04-06T10:48:14.873Z,37.4436
2023-04-06T10:49:14.884Z,37.6791
2023-04-06T10:50:14.976Z,38.1802
2023-04-06T10:51:15.034Z,36.9821
2023-04-06T10:52:15.078Z,36.9773
2023-04-06T10:53:15.232Z,36.4608
2023-04-06T10:54:16.368Z,36.1332
2023-04-06T10:55:16.529Z,37.1190
2023-04-06T10:56:16.810Z,37.5368
2023-04-06T10:57:18.076Z,36.3987
2023-04-06T10:58:18.185Z,36.2891
2023-04-06T10:59:18.388Z,36.9163
2023-04-06T11:00:18.728Z,35.3713
2023-04-06T11:01:19.133Z,34.5396
2023-04-06T11:02:19.389Z,34.8685
2023-04-06T11:03:19.725Z,34.9763
2023-04-06T11:04:20.162Z,34.2302
2023-04-06T11:05:20.112Z,34.2956
2023-04-06T11:06:20.245Z,34.6418
2023-04-06T11:07:20.390Z,36.1224
2023-04-06T11:08:21.534Z,35.7514
2023-04-06T11:09:21.657Z,35.6478
2023-04-06T11:10:21.616Z,35.3471
2023-04-06T11:11:21.904Z,36.2939
2023-04-06T11:12:21.998Z,36.1007
2023-04-06T11:13:22.058Z,35.6785
2023-04-06T11:14:22.164Z,35.9325
2023-04-06T11:15:22.757Z,35.5760
2023-04-06T11:16:22.842Z,35.6936
2023-04-06T11:17:23.849Z,35.9770
2023-04-06T11:18:24.368Z,35.7765
2023-04-06T11:19:24.971Z,35.8320
2023-04-06T11:20:25.058Z,35.9080
2023-04-06T11:21:26.270Z,35.8354
2023-04-06T11:22:26.754Z,35.5033
2023-04-06T11:23:26.842Z,35.1244
2023-04-06T11:24:26.914Z,34.4413
2023-04-06T11:25:27.039Z,35.1764
2023-04-06T11:26:27.778Z,34.9720
2023-04-06T11:27:27.818Z,34.8730
2023-04-06T11:28:29.095Z,34.2420
2023-04-06T11:29:29.434Z,33.7126
2023-04-06T11:30:30.626Z,34.1204
2023-04-06T11:31:31.192Z,34.0388
2023-04-06T11:32:31.334Z,34.4829
2023-04-06T11:33:31.561Z,34.5056
2023-04-06T11:34:31.750Z,34.0058
2023-04-06T11:35:31.829Z,33.0713
2023-04-06T11:36:33.127Z,33.1224
2023-04-06T11:37:33.225Z,33.2640
2023-04-06T11:38:34.573Z,33.7334
2023-04-06T11:39:35.823Z,34.5558
2023-04-06T11:40:37.108Z,34.7883
2023-04-06T11:41:37.278Z,34.3792
2023-04-06T11:42:37.580Z,33.7397
2023-04-06T11:43:37.665Z,33.8214
2023-04-06T11:44:37.778Z,32.5137
2023-04-06T11:45:37.915Z,33.3405
2023-04-06T11:46:38.210Z,33.3847
2023-04-06T11:47:38.361Z,32.3423
2023-04-06T11:48:39.154Z,31.7866
2023-04-06T11:49:39.627Z,31.5850
2023-04-06T11:50:41.126Z,31.9200
2023-04-06T11:51:42.374Z,32.7188
2023-04-06T11:52:42.572Z,32.7845
2023-04-06T11:53:43.740Z,31.8343
2023-04-06T11:54:44.001Z,31.0538
2023-04-06T11:55:44.310Z,31.4107
2023-04-06T11:56:44.542Z,31.0409
2023-04-06T11:57:44.536Z,30.6527
2023-04-06T11:58:45.501Z,30.7717
2023-04-06T11:59:46.659Z,31.0983
2023-04-06T12:00:47.613Z,31.1532
2023-04-06T12:01:47.591Z,30.6147
2023-04-06T12:02:47.794Z,30.4928
2023-04-06T12:03:49.101Z,29.2822
2023-04-06T12:04:49.441Z,29.3961
2023-04-06T12:05:49.414Z,29.1830
2023-04-06T12:06:49.638Z,29.8273
2023-04-06T12:07:49.923Z,28.4093
2023-04-06T12:08:50.298Z,27.7018
2023-04-06T12:09:50.581Z,27.4737
2023-04-06T12:10:50.658Z,27.1076
2023-04-06T12:11:50.922Z,28.2463
2023-04-06T12:12:51.086Z,27.0064
2023-04-06T12:13:52.371Z,26.9232
2023-04-06T12:14:52.553Z,27.4958
2023-04-06T12:15:52.779Z,27.6204
2023-04-06T12:16:53.374Z,27.3784
2023-04-06T12:17:53.947Z,27.5586
2023-04-06T12:18:54.128Z,27.0166
2023-04-06T12:19:54.201Z,27.6911
2023-04-06T12:20:55.207Z,26.5852
2023-04-06T12:21:55.318Z,26.8968
2023-04-06T12:22:55.476Z,27.6796
2023-04-06T12:23:55.734Z,27.7260
2023-04-06T12:24:55.711Z,27.3365
2023-04-06T12:25:56.370Z,27.6017